createdAt,value
2017-03-14T00:00:37.014Z,0
2017-03-14T00:01:47.210Z,0
2017-03-14T00:02:56.679Z,0
2017-03-14T00:04:06.499Z,0
2017-03-14T00:05:16.693Z,0
2017-03-14T00:06:26.514Z,0
2017-03-14T00:07:36.716Z,0
2017-03-14T00:08:46.156Z,0
2017-03-14T00:09:55.579Z,0
2017-03-14T00:11:05.064Z,0
2017-03-14T00:12:14.872Z,0
2017-03-14T00:13:24.686Z,0
2017-03-14T00:14:34.881Z,0
2017-03-14T00:15:43.914Z,0
2017-03-14T00:16:53.747Z,0
2017-03-14T00:18:03.761Z,0
2017-03-14T00:19:13.572Z,0
2017-03-14T00:20:22.999Z,0
2017-03-14T00:21:32.428Z,0
2017-03-14T00:22:42.240Z,0
2017-03-14T00:23:52.052Z,0
2017-03-14T00:25:01.883Z,0
2017-03-14T00:26:10.924Z,0
2017-03-14T00:27:20.734Z,0
2017-03-14T00:28:30.557Z,0
2017-03-14T00:29:40.369Z,0
2017-03-14T00:30:49.415Z,0
2017-03-14T00:31:59.993Z,0
2017-03-14T00:33:09.807Z,0
2017-03-14T00:34:19.618Z,0
2017-03-14T00:35:29.039Z,0
2017-03-14T00:36:38.844Z,0
2017-03-14T00:37:49.420Z,0
2017-03-14T00:38:59.613Z,0
2017-03-14T00:40:09.810Z,0
2017-03-14T00:41:19.622Z,0
2017-03-14T00:42:29.045Z,0
2017-03-14T00:43:38.481Z,0
2017-03-14T00:44:47.914Z,0
2017-03-14T00:45:58.112Z,0
2017-03-14T00:47:08.182Z,0
2017-03-14T00:48:17.216Z,0
2017-03-14T00:49:27.405Z,0
2017-03-14T00:50:37.218Z,0
2017-03-14T00:51:47.033Z,0
2017-03-14T00:52:57.235Z,0
2017-03-14T00:54:07.053Z,0
2017-03-14T00:55:16.868Z,0
2017-03-14T00:56:26.675Z,0
2017-03-14T00:57:36.479Z,0
2017-03-14T00:58:46.677Z,0
2017-03-14T00:59:56.885Z,0
2017-03-14T01:01:06.702Z,0
2017-03-14T01:02:16.513Z,0
2017-03-14T01:03:25.942Z,0
2017-03-14T01:04:36.009Z,0
2017-03-14T01:05:45.818Z,0
2017-03-14T01:06:55.244Z,0
2017-03-14T01:08:05.896Z,0
2017-03-14T01:09:15.391Z,0
2017-03-14T01:10:25.216Z,0
2017-03-14T01:11:35.423Z,0
2017-03-14T01:12:45.229Z,0
2017-03-14T01:13:54.266Z,0
2017-03-14T01:15:02.914Z,0
2017-03-14T01:16:12.744Z,0
2017-03-14T01:17:22.658Z,0
2017-03-14T01:18:32.116Z,0
2017-03-14T01:19:42.372Z,0
2017-03-14T01:20:52.278Z,0
2017-03-14T01:22:02.340Z,0
2017-03-14T01:23:12.647Z,0
2017-03-14T01:24:21.740Z,0
2017-03-14T01:25:31.932Z,0
2017-03-14T01:26:41.361Z,0
2017-03-14T01:27:51.570Z,0
2017-03-14T01:29:01.069Z,0
2017-03-14T01:30:10.942Z,0
2017-03-14T01:31:20.751Z,0
2017-03-14T01:32:30.275Z,0
2017-03-14T01:33:40.343Z,0
2017-03-14T01:34:50.592Z,0
2017-03-14T01:36:00.411Z,0
2017-03-14T01:37:10.220Z,0
2017-03-14T01:38:20.466Z,0
2017-03-14T01:39:30.664Z,0
2017-03-14T01:40:40.089Z,0
2017-03-14T01:41:50.726Z,0
2017-03-14T01:43:00.213Z,0
2017-03-14T01:44:10.055Z,0
2017-03-14T01:45:19.121Z,0
2017-03-14T01:46:28.992Z,0
2017-03-14T01:47:39.568Z,0
2017-03-14T01:48:49.788Z,0
2017-03-14T01:49:58.861Z,0
2017-03-14T01:51:08.982Z,0
2017-03-14T01:52:18.853Z,0
2017-03-14T01:53:28.677Z,0
2017-03-14T01:54:38.490Z,0
2017-03-14T01:55:48.696Z,0
2017-03-14T01:56:58.521Z,0
2017-03-14T01:58:08.336Z,0
2017-03-14T01:59:18.586Z,0
2017-03-14T02:00:28.394Z,0
2017-03-14T02:01:38.200Z,0
2017-03-14T02:02:48.419Z,0
2017-03-14T02:03:58.999Z,0
2017-03-14T02:05:08.839Z,0
2017-03-14T02:06:19.081Z,0
2017-03-14T02:07:29.324Z,0
2017-03-14T02:08:39.171Z,0
2017-03-14T02:09:49.456Z,0
2017-03-14T02:10:58.504Z,0
2017-03-14T02:12:08.323Z,0
2017-03-14T02:13:18.552Z,0
2017-03-14T02:14:29.193Z,0
2017-03-14T02:15:39.003Z,0
2017-03-14T02:16:48.818Z,0
2017-03-14T02:17:57.874Z,0
2017-03-14T02:19:07.732Z,0
2017-03-14T02:20:17.790Z,0
2017-03-14T02:21:27.219Z,0
2017-03-14T02:22:37.495Z,0
2017-03-14T02:23:47.688Z,0
2017-03-14T02:24:57.904Z,0
2017-03-14T02:26:08.482Z,0
2017-03-14T02:27:18.286Z,0
2017-03-14T02:28:28.103Z,0
2017-03-14T02:29:37.518Z,0
2017-03-14T02:30:46.973Z,0
2017-03-14T02:31:56.645Z,0
2017-03-14T02:33:05.367Z,0
2017-03-14T02:34:14.055Z,0
2017-03-14T02:35:23.532Z,0
2017-03-14T02:36:33.743Z,0
2017-03-14T02:37:44.355Z,0
2017-03-14T02:38:54.173Z,0
2017-03-14T02:40:04.366Z,0
2017-03-14T02:41:14.588Z,0
2017-03-14T02:42:24.391Z,0
2017-03-14T02:43:34.200Z,0
2017-03-14T02:44:44.461Z,0
2017-03-14T02:45:54.295Z,0
2017-03-14T02:47:03.769Z,0
2017-03-14T02:48:13.192Z,0
2017-03-14T02:49:23.589Z,0
2017-03-14T02:50:32.640Z,0
2017-03-14T02:51:42.477Z,0
2017-03-14T02:52:52.348Z,0
2017-03-14T02:54:02.159Z,0
2017-03-14T02:55:11.605Z,0
2017-03-14T02:56:20.715Z,0
2017-03-14T02:57:30.973Z,0
2017-03-14T02:58:40.813Z,0
2017-03-14T02:59:50.644Z,0
2017-03-14T03:01:00.340Z,0
2017-03-14T03:02:10.526Z,0
2017-03-14T03:03:19.956Z,0
2017-03-14T03:04:30.199Z,0
2017-03-14T03:05:39.248Z,0
2017-03-14T03:06:49.517Z,0
2017-03-14T03:07:58.626Z,0
2017-03-14T03:09:08.053Z,0
2017-03-14T03:10:17.867Z,0
2017-03-14T03:11:28.080Z,0
2017-03-14T03:12:37.370Z,0
2017-03-14T03:13:46.797Z,0
2017-03-14T03:14:56.224Z,0
2017-03-14T03:16:05.268Z,0
2017-03-14T03:17:15.464Z,0
2017-03-14T03:18:26.051Z,0
2017-03-14T03:19:35.882Z,0
2017-03-14T03:20:45.307Z,0
2017-03-14T03:21:55.500Z,0
2017-03-14T03:23:05.335Z,0
2017-03-14T03:24:15.154Z,0
2017-03-14T03:25:24.978Z,0
2017-03-14T03:26:35.174Z,0
2017-03-14T03:27:44.980Z,0
2017-03-14T03:28:55.174Z,0
2017-03-14T03:30:04.466Z,0
2017-03-14T03:31:14.275Z,0
2017-03-14T03:32:24.078Z,0
2017-03-14T03:33:33.892Z,0
2017-03-14T03:34:44.084Z,0
2017-03-14T03:35:54.284Z,0
2017-03-14T03:37:03.322Z,0
2017-03-14T03:38:13.515Z,0
2017-03-14T03:39:22.981Z,0
2017-03-14T03:40:33.192Z,0
2017-03-14T03:41:43.257Z,0
2017-03-14T03:42:53.457Z,0
2017-03-14T03:44:03.269Z,0
2017-03-14T03:45:12.697Z,0
2017-03-14T03:46:22.886Z,0
2017-03-14T03:47:33.481Z,0
2017-03-14T03:48:43.299Z,0
2017-03-14T03:49:52.722Z,0
2017-03-14T03:51:02.153Z,0
2017-03-14T03:52:11.576Z,0
2017-03-14T03:53:21.642Z,0
2017-03-14T03:54:31.839Z,0
2017-03-14T03:55:41.643Z,0
2017-03-14T03:56:51.455Z,0
2017-03-14T03:58:00.885Z,0
2017-03-14T03:59:10.321Z,0
2017-03-14T04:00:19.741Z,0
2017-03-14T04:01:28.778Z,0
2017-03-14T04:02:38.974Z,0
2017-03-14T04:03:48.785Z,0
2017-03-14T04:04:59.231Z,0
2017-03-14T04:06:09.047Z,0
2017-03-14T04:07:18.855Z,0
2017-03-14T04:08:28.662Z,0
2017-03-14T04:09:38.860Z,0
2017-03-14T04:10:48.284Z,0
2017-03-14T04:11:57.327Z,0
2017-03-14T04:13:06.750Z,0
2017-03-14T04:14:16.178Z,0
2017-03-14T04:15:26.365Z,0
2017-03-14T04:16:36.564Z,0
2017-03-14T04:17:46.002Z,0
2017-03-14T04:18:56.197Z,0
2017-03-14T04:20:06.012Z,0
2017-03-14T04:21:16.213Z,0
2017-03-14T04:22:26.274Z,0
2017-03-14T04:23:36.472Z,0
2017-03-14T04:24:45.510Z,0
2017-03-14T04:25:55.705Z,0
2017-03-14T04:27:04.753Z,0
2017-03-14T04:28:14.588Z,0
2017-03-14T04:29:24.399Z,0
2017-03-14T04:30:34.208Z,0
2017-03-14T04:31:44.408Z,0
2017-03-14T04:32:54.226Z,0
2017-03-14T04:34:04.320Z,0
2017-03-14T04:35:14.518Z,0
2017-03-14T04:36:24.318Z,0
2017-03-14T04:37:34.130Z,0
2017-03-14T04:38:44.322Z,0
2017-03-14T04:39:54.524Z,0
2017-03-14T04:41:04.337Z,0
2017-03-14T04:42:14.540Z,0
2017-03-14T04:43:24.357Z,0
2017-03-14T04:44:33.819Z,0
2017-03-14T04:45:43.885Z,0
2017-03-14T04:46:53.697Z,0
2017-03-14T04:48:03.515Z,0
2017-03-14T04:49:14.087Z,0
2017-03-14T04:50:23.891Z,0
2017-03-14T04:51:33.701Z,0
2017-03-14T04:52:43.514Z,0
2017-03-14T04:53:53.332Z,0
2017-03-14T04:55:03.148Z,0
2017-03-14T04:56:13.339Z,0
2017-03-14T04:57:23.401Z,0
2017-03-14T04:58:33.979Z,0
2017-03-14T04:59:44.175Z,0
2017-03-14T05:00:54.783Z,0
2017-03-14T05:02:04.596Z,0
2017-03-14T05:03:14.022Z,0
2017-03-14T05:04:24.212Z,0
2017-03-14T05:05:33.648Z,0
2017-03-14T05:06:42.694Z,0
2017-03-14T05:07:52.890Z,0
2017-03-14T05:09:02.948Z,0
2017-03-14T05:10:13.148Z,0
2017-03-14T05:11:22.955Z,0
2017-03-14T05:12:33.149Z,0
2017-03-14T05:13:43.728Z,0
2017-03-14T05:14:53.544Z,0
2017-03-14T05:16:03.744Z,0
2017-03-14T05:17:13.176Z,0
2017-03-14T05:18:22.602Z,0
2017-03-14T05:19:32.801Z,0
2017-03-14T05:20:41.733Z,0
2017-03-14T05:21:51.922Z,0
2017-03-14T05:23:01.361Z,0
2017-03-14T05:24:11.175Z,0
2017-03-14T05:25:20.611Z,0
2017-03-14T05:26:30.439Z,0
2017-03-14T05:27:41.016Z,0
2017-03-14T05:28:51.211Z,0
2017-03-14T05:30:01.020Z,0
2017-03-14T05:31:10.452Z,0
2017-03-14T05:32:20.899Z,0
2017-03-14T05:33:31.091Z,0
2017-03-14T05:34:40.902Z,0
2017-03-14T05:35:50.331Z,0
2017-03-14T05:36:59.000Z,0
2017-03-14T05:38:08.443Z,0
2017-03-14T05:39:17.477Z,0
2017-03-14T05:40:26.894Z,0
2017-03-14T05:41:35.929Z,0
2017-03-14T05:42:44.583Z,0
2017-03-14T05:43:53.874Z,0
2017-03-14T05:45:03.683Z,5
2017-03-14T05:46:13.491Z,5
2017-03-14T05:47:24.063Z,5
2017-03-14T05:48:33.867Z,5
2017-03-14T05:49:44.069Z,5
2017-03-14T05:50:54.294Z,5
2017-03-14T05:52:04.113Z,10
2017-03-14T05:53:13.539Z,10
2017-03-14T05:54:22.973Z,10
2017-03-14T05:55:33.418Z,10
2017-03-14T05:56:43.226Z,15
2017-03-14T05:57:53.420Z,15
2017-03-14T05:59:03.623Z,20
2017-03-14T06:00:13.054Z,20
2017-03-14T06:01:23.636Z,20
2017-03-14T06:02:33.833Z,25
2017-03-14T06:03:43.653Z,25
2017-03-14T06:04:53.487Z,30
2017-03-14T06:06:03.681Z,30
2017-03-14T06:07:13.741Z,35
2017-03-14T06:08:23.935Z,35
2017-03-14T06:09:33.356Z,40
2017-03-14T06:10:43.966Z,45
2017-03-14T06:11:53.781Z,45
2017-03-14T06:13:03.598Z,50
2017-03-14T06:14:13.408Z,55
2017-03-14T06:15:24.022Z,55
2017-03-14T06:16:33.830Z,60
2017-03-14T06:17:44.049Z,65
2017-03-14T06:18:54.237Z,65
2017-03-14T06:20:04.048Z,70
2017-03-14T06:21:13.856Z,75
2017-03-14T06:22:24.047Z,75
2017-03-14T06:23:33.099Z,80
2017-03-14T06:24:41.777Z,80
2017-03-14T06:25:52.106Z,80
2017-03-14T06:27:01.201Z,85
2017-03-14T06:28:10.625Z,90
2017-03-14T06:29:20.445Z,95
2017-03-14T06:30:30.271Z,95
2017-03-14T06:31:39.707Z,100
2017-03-14T06:32:49.188Z,100
2017-03-14T06:33:59.396Z,105
2017-03-14T06:35:09.327Z,105
2017-03-14T06:36:19.187Z,110
2017-03-14T06:37:29.439Z,110
2017-03-14T06:38:38.874Z,105
2017-03-14T06:39:49.506Z,110
2017-03-14T06:40:59.731Z,110
2017-03-14T06:42:10.237Z,115
2017-03-14T06:43:20.523Z,115
2017-03-14T06:44:30.449Z,120
2017-03-14T06:45:40.621Z,125
2017-03-14T06:46:50.771Z,130
2017-03-14T06:48:00.646Z,130
2017-03-14T06:49:11.258Z,135
2017-03-14T06:50:21.459Z,140
2017-03-14T06:51:31.722Z,145
2017-03-14T06:52:41.359Z,145
2017-03-14T06:53:51.301Z,145
2017-03-14T06:55:01.536Z,150
2017-03-14T06:56:10.960Z,150
2017-03-14T06:57:20.006Z,150
2017-03-14T06:58:29.430Z,150
2017-03-14T06:59:39.870Z,155
2017-03-14T07:00:50.072Z,155
2017-03-14T07:01:59.891Z,165
2017-03-14T07:03:09.706Z,170
2017-03-14T07:04:19.898Z,180
2017-03-14T07:05:28.945Z,180
2017-03-14T07:06:39.521Z,190
2017-03-14T07:07:48.953Z,185
2017-03-14T07:08:58.001Z,195
2017-03-14T07:10:07.433Z,205
2017-03-14T07:11:17.498Z,215
2017-03-14T07:12:27.313Z,225
2017-03-14T07:13:37.150Z,230
2017-03-14T07:14:47.352Z,240
2017-03-14T07:15:57.550Z,240
2017-03-14T07:17:07.745Z,250
2017-03-14T07:18:17.548Z,265
2017-03-14T07:19:27.737Z,270
2017-03-14T07:20:38.323Z,270
2017-03-14T07:21:48.519Z,270
2017-03-14T07:22:57.969Z,275
2017-03-14T07:24:06.630Z,265
2017-03-14T07:25:16.067Z,265
2017-03-14T07:26:26.269Z,260
2017-03-14T07:27:36.090Z,255
2017-03-14T07:28:46.147Z,260
2017-03-14T07:29:55.578Z,250
2017-03-14T07:31:05.778Z,260
2017-03-14T07:32:16.355Z,265
2017-03-14T07:33:26.164Z,275
2017-03-14T07:34:35.994Z,285
2017-03-14T07:35:45.806Z,295
2017-03-14T07:36:56.412Z,315
2017-03-14T07:38:06.998Z,325
2017-03-14T07:39:17.199Z,340
2017-03-14T07:40:27.022Z,340
2017-03-14T07:41:36.074Z,350
2017-03-14T07:42:45.895Z,355
2017-03-14T07:43:56.097Z,350
2017-03-14T07:45:05.538Z,360
2017-03-14T07:46:15.221Z,355
2017-03-14T07:47:25.028Z,330
2017-03-14T07:48:33.694Z,320
2017-03-14T07:49:43.126Z,340
2017-03-14T07:50:52.937Z,355
2017-03-14T07:52:03.130Z,360
2017-03-14T07:53:12.942Z,380
2017-03-14T07:54:22.371Z,395
2017-03-14T07:55:32.580Z,410
2017-03-14T07:56:42.392Z,420
2017-03-14T07:57:52.839Z,435
2017-03-14T07:59:02.651Z,430
2017-03-14T08:00:13.231Z,405
2017-03-14T08:01:23.044Z,400
2017-03-14T08:02:32.470Z,415
2017-03-14T08:03:43.054Z,410
2017-03-14T08:04:52.894Z,405
2017-03-14T08:06:02.712Z,395
2017-03-14T08:07:12.906Z,395
2017-03-14T08:08:22.714Z,395
2017-03-14T08:09:32.419Z,395
2017-03-14T08:10:42.995Z,405
2017-03-14T08:11:53.576Z,405
2017-03-14T08:13:03.385Z,390
2017-03-14T08:14:12.819Z,390
2017-03-14T08:15:22.243Z,385
2017-03-14T08:16:32.060Z,390
2017-03-14T08:17:41.491Z,390
2017-03-14T08:18:51.310Z,405
2017-03-14T08:20:00.730Z,425
2017-03-14T08:21:10.759Z,430
2017-03-14T08:22:19.802Z,435
2017-03-14T08:23:29.237Z,430
2017-03-14T08:24:39.049Z,440
2017-03-14T08:25:48.870Z,455
2017-03-14T08:26:58.684Z,470
2017-03-14T08:28:08.111Z,485
2017-03-14T08:29:17.543Z,480
2017-03-14T08:30:26.583Z,500
2017-03-14T08:31:35.245Z,540
2017-03-14T08:32:44.671Z,570
2017-03-14T08:33:54.479Z,585
2017-03-14T08:35:03.153Z,580
2017-03-14T08:36:12.588Z,540
2017-03-14T08:37:21.636Z,520
2017-03-14T08:38:31.165Z,515
2017-03-14T08:39:41.734Z,515
2017-03-14T08:40:51.599Z,515
2017-03-14T08:42:01.279Z,515
2017-03-14T08:43:10.327Z,535
2017-03-14T08:44:20.013Z,560
2017-03-14T08:45:29.823Z,570
2017-03-14T08:46:38.867Z,560
2017-03-14T08:47:48.343Z,550
2017-03-14T08:48:57.004Z,540
2017-03-14T08:50:06.474Z,530
2017-03-14T08:51:15.139Z,520
2017-03-14T08:52:24.179Z,525
2017-03-14T08:53:33.620Z,520
2017-03-14T08:54:43.470Z,515
2017-03-14T08:55:53.151Z,500
2017-03-14T08:57:02.967Z,490
2017-03-14T08:58:12.446Z,475
2017-03-14T08:59:21.502Z,465
2017-03-14T09:00:30.555Z,455
2017-03-14T09:01:39.596Z,460
2017-03-14T09:02:48.257Z,485
2017-03-14T09:03:57.294Z,505
2017-03-14T09:05:06.724Z,540
2017-03-14T09:06:15.387Z,580
2017-03-14T09:07:24.683Z,615
2017-03-14T09:08:33.722Z,650
2017-03-14T09:09:42.383Z,695
2017-03-14T09:10:51.071Z,720
2017-03-14T09:11:59.728Z,1230
2017-03-14T09:13:08.767Z,635
2017-03-14T09:14:17.810Z,995
2017-03-14T09:15:26.867Z,765
2017-03-14T09:16:35.914Z,1235
2017-03-14T09:17:44.963Z,905
2017-03-14T09:18:54.218Z,1085
2017-03-14T09:20:02.883Z,975
2017-03-14T09:21:11.931Z,735
2017-03-14T09:22:20.974Z,1360
2017-03-14T09:23:30.017Z,755
2017-03-14T09:24:39.085Z,1360
2017-03-14T09:25:48.132Z,1295
2017-03-14T09:26:57.173Z,1390
2017-03-14T09:28:06.211Z,1370
2017-03-14T09:29:15.251Z,1355
2017-03-14T09:30:24.162Z,1395
2017-03-14T09:31:33.203Z,1360
2017-03-14T09:32:42.254Z,1285
2017-03-14T09:33:51.342Z,1330
2017-03-14T09:35:00.844Z,1345
2017-03-14T09:36:09.891Z,1350
2017-03-14T09:37:18.945Z,1405
2017-03-14T09:38:28.026Z,1395
2017-03-14T09:39:37.509Z,1395
2017-03-14T09:40:46.959Z,1410
2017-03-14T09:41:56.762Z,1365
2017-03-14T09:43:06.194Z,1390
2017-03-14T09:44:15.246Z,1410
2017-03-14T09:45:24.675Z,1445
2017-03-14T09:46:33.902Z,1420
2017-03-14T09:47:43.234Z,1435
2017-03-14T09:48:53.052Z,1550
2017-03-14T09:50:02.512Z,1515
2017-03-14T09:51:11.945Z,1510
2017-03-14T09:52:21.000Z,1500
2017-03-14T09:53:30.082Z,1540
2017-03-14T09:54:39.571Z,1555
2017-03-14T09:55:48.614Z,1435
2017-03-14T09:56:58.436Z,1490
2017-03-14T09:58:07.862Z,1560
2017-03-14T09:59:17.187Z,1565
2017-03-14T10:00:26.683Z,1565
2017-03-14T10:01:35.736Z,1560
2017-03-14T10:02:45.935Z,1580
2017-03-14T10:03:56.135Z,1545
2017-03-14T10:05:05.573Z,1560
2017-03-14T10:06:14.618Z,1565
2017-03-14T10:07:24.092Z,1570
2017-03-14T10:08:33.144Z,1535
2017-03-14T10:09:42.195Z,1605
2017-03-14T10:10:51.877Z,1635
2017-03-14T10:12:00.927Z,1525
2017-03-14T10:13:10.739Z,1595
2017-03-14T10:14:19.821Z,1620
2017-03-14T10:15:28.873Z,1595
2017-03-14T10:16:38.303Z,1650
2017-03-14T10:17:47.356Z,1630
2017-03-14T10:18:57.169Z,1595
2017-03-14T10:20:06.601Z,1625
2017-03-14T10:21:15.649Z,1685
2017-03-14T10:22:25.165Z,1685
2017-03-14T10:23:34.134Z,1675
2017-03-14T10:24:43.741Z,1650
2017-03-14T10:25:52.409Z,1635
2017-03-14T10:27:01.696Z,1735
2017-03-14T10:28:10.969Z,1770
2017-03-14T10:29:19.929Z,1765
2017-03-14T10:30:29.494Z,1650
2017-03-14T10:31:38.468Z,1660
2017-03-14T10:32:47.132Z,1660
2017-03-14T10:33:56.052Z,1765
2017-03-14T10:35:05.025Z,1770
2017-03-14T10:36:13.993Z,1690
2017-03-14T10:37:23.259Z,1705
2017-03-14T10:38:32.526Z,1785
2017-03-14T10:39:41.487Z,1810
2017-03-14T10:40:50.463Z,1855
2017-03-14T10:41:59.438Z,1805
2017-03-14T10:43:08.106Z,1805
2017-03-14T10:44:17.080Z,1755
2017-03-14T10:45:25.990Z,1735
2017-03-14T10:46:34.971Z,1655
2017-03-14T10:47:43.643Z,1815
2017-03-14T10:48:52.314Z,1915
2017-03-14T10:50:02.193Z,1835
2017-03-14T10:51:11.762Z,1700
2017-03-14T10:52:20.723Z,1770
2017-03-14T10:53:29.999Z,1615
2017-03-14T10:54:39.384Z,1435
2017-03-14T10:55:49.244Z,1315
2017-03-14T10:56:58.214Z,1335
2017-03-14T10:58:07.480Z,1255
2017-03-14T10:59:16.445Z,1180
2017-03-14T11:00:25.706Z,1190
2017-03-14T11:01:34.373Z,1175
2017-03-14T11:02:43.937Z,1200
2017-03-14T11:03:52.602Z,1230
2017-03-14T11:05:01.562Z,1225
2017-03-14T11:06:10.880Z,1340
2017-03-14T11:07:20.444Z,1430
2017-03-14T11:08:29.725Z,1335
2017-03-14T11:09:39.290Z,1450
2017-03-14T11:10:48.603Z,1520
2017-03-14T11:11:58.477Z,1630
2017-03-14T11:13:07.165Z,1735
2017-03-14T11:14:15.978Z,1920
2017-03-14T11:15:24.644Z,1875
2017-03-14T11:16:33.609Z,1620
2017-03-14T11:17:42.590Z,1680
2017-03-14T11:18:51.556Z,1685
2017-03-14T11:20:00.217Z,1695
2017-03-14T11:21:08.876Z,1735
2017-03-14T11:22:17.539Z,1685
2017-03-14T11:23:26.513Z,1745
2017-03-14T11:24:35.778Z,1785
2017-03-14T11:25:45.291Z,1790
2017-03-14T11:26:54.849Z,1825
2017-03-14T11:28:03.814Z,1725
2017-03-14T11:29:12.478Z,1730
2017-03-14T11:30:22.032Z,1740
2017-03-14T11:31:30.989Z,1635
2017-03-14T11:32:39.945Z,1685
2017-03-14T11:33:48.608Z,1700
2017-03-14T11:34:57.573Z,1640
2017-03-14T11:36:06.530Z,1640
2017-03-14T11:37:15.440Z,1725
2017-03-14T11:38:24.406Z,1675
2017-03-14T11:39:33.664Z,1615
2017-03-14T11:40:42.627Z,1710
2017-03-14T11:41:51.619Z,1730
2017-03-14T11:43:00.884Z,1710
2017-03-14T11:44:09.882Z,1650
2017-03-14T11:45:18.850Z,1705
2017-03-14T11:46:28.113Z,1690
2017-03-14T11:47:37.667Z,1620
2017-03-14T11:48:46.874Z,1525
2017-03-14T11:49:55.835Z,1315
2017-03-14T11:51:04.494Z,1175
2017-03-14T11:52:13.457Z,1050
2017-03-14T11:53:22.719Z,865
2017-03-14T11:54:31.689Z,755
2017-03-14T11:55:40.660Z,710
2017-03-14T11:56:49.317Z,705
2017-03-14T11:57:57.975Z,700
2017-03-14T11:59:06.935Z,700
2017-03-14T12:00:16.173Z,700
2017-03-14T12:01:25.438Z,700
2017-03-14T12:02:34.107Z,695
2017-03-14T12:03:43.167Z,710
2017-03-14T12:04:52.432Z,720
2017-03-14T12:06:01.395Z,725
2017-03-14T12:07:10.059Z,725
2017-03-14T12:08:19.026Z,740
2017-03-14T12:09:27.986Z,770
2017-03-14T12:10:36.952Z,790
2017-03-14T12:11:46.159Z,830
2017-03-14T12:12:55.118Z,865
2017-03-14T12:14:04.080Z,880
2017-03-14T12:15:13.360Z,885
2017-03-14T12:16:22.929Z,895
2017-03-14T12:17:32.191Z,920
2017-03-14T12:18:41.150Z,940
2017-03-14T12:19:50.114Z,955
2017-03-14T12:20:59.373Z,950
2017-03-14T12:22:08.331Z,950
2017-03-14T12:23:17.556Z,940
2017-03-14T12:24:26.538Z,920
2017-03-14T12:25:35.505Z,925
2017-03-14T12:26:44.166Z,925
2017-03-14T12:27:52.833Z,930
2017-03-14T12:29:01.806Z,935
2017-03-14T12:30:10.467Z,915
2017-03-14T12:31:19.436Z,910
2017-03-14T12:32:28.997Z,895
2017-03-14T12:33:38.297Z,900
2017-03-14T12:34:47.817Z,890
2017-03-14T12:35:57.083Z,880
2017-03-14T12:37:06.388Z,870
2017-03-14T12:38:15.999Z,860
2017-03-14T12:39:25.264Z,840
2017-03-14T12:40:34.531Z,815
2017-03-14T12:41:43.494Z,780
2017-03-14T12:42:52.455Z,745
2017-03-14T12:44:01.720Z,730
2017-03-14T12:45:10.680Z,720
2017-03-14T12:46:19.642Z,720
2017-03-14T12:47:29.214Z,720
2017-03-14T12:48:37.876Z,710
2017-03-14T12:49:46.845Z,705
2017-03-14T12:50:56.105Z,710
2017-03-14T12:52:05.083Z,710
2017-03-14T12:53:13.748Z,700
2017-03-14T12:54:22.720Z,695
2017-03-14T12:55:31.689Z,705
2017-03-14T12:56:40.651Z,715
2017-03-14T12:57:49.867Z,710
2017-03-14T12:58:58.835Z,705
2017-03-14T13:00:08.404Z,690
2017-03-14T13:01:17.368Z,680
2017-03-14T13:02:26.035Z,675
2017-03-14T13:03:35.299Z,675
2017-03-14T13:04:44.262Z,670
2017-03-14T13:05:52.926Z,685
2017-03-14T13:07:01.884Z,695
2017-03-14T13:08:10.542Z,710
2017-03-14T13:09:19.454Z,700
2017-03-14T13:10:28.109Z,715
2017-03-14T13:11:37.071Z,710
2017-03-14T13:12:46.633Z,710
2017-03-14T13:13:55.899Z,720
2017-03-14T13:15:04.862Z,720
2017-03-14T13:16:13.530Z,725
2017-03-14T13:17:22.239Z,715
2017-03-14T13:18:30.905Z,710
2017-03-14T13:19:39.563Z,700
2017-03-14T13:20:48.255Z,695
2017-03-14T13:21:57.226Z,675
2017-03-14T13:23:06.484Z,670
2017-03-14T13:24:15.467Z,670
2017-03-14T13:25:24.431Z,665
2017-03-14T13:26:33.392Z,670
2017-03-14T13:27:42.351Z,670
2017-03-14T13:28:51.013Z,670
2017-03-14T13:29:59.974Z,670
2017-03-14T13:31:08.935Z,670
2017-03-14T13:32:18.537Z,670
2017-03-14T13:33:27.529Z,665
2017-03-14T13:34:36.843Z,665
2017-03-14T13:35:45.808Z,670
2017-03-14T13:36:54.792Z,665
2017-03-14T13:38:03.707Z,655
2017-03-14T13:39:12.373Z,650
2017-03-14T13:40:21.638Z,635
2017-03-14T13:41:30.898Z,625
2017-03-14T13:42:40.168Z,605
2017-03-14T13:43:48.830Z,595
2017-03-14T13:44:57.490Z,595
2017-03-14T13:46:06.451Z,600
2017-03-14T13:47:15.472Z,600
2017-03-14T13:48:24.148Z,590
2017-03-14T13:49:33.410Z,590
2017-03-14T13:50:42.070Z,580
2017-03-14T13:51:51.347Z,580
2017-03-14T13:53:00.625Z,565
2017-03-14T13:54:09.286Z,550
2017-03-14T13:55:17.944Z,530
2017-03-14T13:56:26.906Z,530
2017-03-14T13:57:36.168Z,540
2017-03-14T13:58:45.127Z,560
2017-03-14T13:59:54.096Z,560
2017-03-14T14:01:03.043Z,560
2017-03-14T14:02:11.708Z,560
2017-03-14T14:03:20.675Z,565
2017-03-14T14:04:30.238Z,575
2017-03-14T14:05:38.898Z,565
2017-03-14T14:06:47.876Z,565
2017-03-14T14:07:56.627Z,560
2017-03-14T14:09:05.899Z,560
2017-03-14T14:10:15.158Z,565
2017-03-14T14:11:24.722Z,570
2017-03-14T14:12:33.985Z,575
2017-03-14T14:13:42.651Z,575
2017-03-14T14:14:51.378Z,575
2017-03-14T14:16:01.324Z,570
2017-03-14T14:17:10.004Z,565
2017-03-14T14:18:18.743Z,570
2017-03-14T14:19:28.002Z,575
2017-03-14T14:20:36.668Z,570
2017-03-14T14:21:45.630Z,545
2017-03-14T14:22:54.293Z,535
2017-03-14T14:24:03.508Z,540
2017-03-14T14:25:12.203Z,555
2017-03-14T14:26:20.867Z,560
2017-03-14T14:27:29.529Z,570
2017-03-14T14:28:39.094Z,580
2017-03-14T14:29:48.068Z,585
2017-03-14T14:30:57.024Z,590
2017-03-14T14:32:06.319Z,590
2017-03-14T14:33:15.280Z,590
2017-03-14T14:34:24.242Z,590
2017-03-14T14:35:34.370Z,590
2017-03-14T14:36:43.448Z,595
2017-03-14T14:37:52.406Z,610
2017-03-14T14:39:01.321Z,620
2017-03-14T14:40:10.621Z,635
2017-03-14T14:41:20.184Z,630
2017-03-14T14:42:29.380Z,635
2017-03-14T14:43:38.410Z,740
2017-03-14T14:44:47.765Z,650
2017-03-14T14:45:56.725Z,630
2017-03-14T14:47:06.260Z,645
2017-03-14T14:48:15.525Z,745
2017-03-14T14:49:24.792Z,665
2017-03-14T14:50:34.652Z,580
2017-03-14T14:51:44.252Z,555
2017-03-14T14:52:53.218Z,550
2017-03-14T14:54:02.490Z,550
2017-03-14T14:55:11.454Z,545
2017-03-14T14:56:20.718Z,535
2017-03-14T14:57:30.295Z,530
2017-03-14T14:58:39.760Z,520
2017-03-14T14:59:49.366Z,515
2017-03-14T15:00:59.050Z,515
2017-03-14T15:02:08.635Z,510
2017-03-14T15:03:17.598Z,515
2017-03-14T15:04:26.561Z,510
2017-03-14T15:05:35.824Z,500
2017-03-14T15:06:45.697Z,500
2017-03-14T15:07:54.969Z,500
2017-03-14T15:09:04.229Z,500
2017-03-14T15:10:12.913Z,500
2017-03-14T15:11:22.476Z,495
2017-03-14T15:12:32.244Z,495
2017-03-14T15:13:41.504Z,490
2017-03-14T15:14:50.167Z,490
2017-03-14T15:15:59.443Z,485
2017-03-14T15:17:08.414Z,485
2017-03-14T15:18:17.689Z,475
2017-03-14T15:19:26.987Z,475
2017-03-14T15:20:35.989Z,475
2017-03-14T15:21:44.763Z,470
2017-03-14T15:22:53.774Z,470
2017-03-14T15:24:04.148Z,470
2017-03-14T15:25:13.417Z,470
2017-03-14T15:26:22.983Z,490
2017-03-14T15:27:31.900Z,515
2017-03-14T15:28:41.465Z,530
2017-03-14T15:29:51.135Z,525
2017-03-14T15:31:00.403Z,485
2017-03-14T15:32:10.010Z,460
2017-03-14T15:33:19.600Z,455
2017-03-14T15:34:28.569Z,445
2017-03-14T15:35:37.749Z,435
2017-03-14T15:36:46.719Z,430
2017-03-14T15:37:55.384Z,435
2017-03-14T15:39:04.061Z,450
2017-03-14T15:40:12.813Z,470
2017-03-14T15:41:21.644Z,465
2017-03-14T15:42:30.902Z,490
2017-03-14T15:43:39.562Z,515
2017-03-14T15:44:48.431Z,475
2017-03-14T15:45:57.807Z,480
2017-03-14T15:47:06.702Z,455
2017-03-14T15:48:16.600Z,420
2017-03-14T15:49:26.336Z,390
2017-03-14T15:50:35.661Z,370
2017-03-14T15:51:44.993Z,365
2017-03-14T15:52:53.969Z,350
2017-03-14T15:54:02.936Z,340
2017-03-14T15:55:12.224Z,330
2017-03-14T15:56:21.491Z,325
2017-03-14T15:57:31.068Z,320
2017-03-14T15:58:40.691Z,310
2017-03-14T15:59:50.686Z,305
2017-03-14T16:01:00.018Z,300
2017-03-14T16:02:08.981Z,295
2017-03-14T16:03:17.650Z,290
2017-03-14T16:04:26.924Z,285
2017-03-14T16:05:36.494Z,275
2017-03-14T16:06:45.453Z,270
2017-03-14T16:07:54.715Z,265
2017-03-14T16:09:03.684Z,260
2017-03-14T16:10:12.655Z,255
2017-03-14T16:11:21.626Z,250
2017-03-14T16:12:30.923Z,250
2017-03-14T16:13:40.835Z,245
2017-03-14T16:14:50.463Z,240
2017-03-14T16:15:59.730Z,240
2017-03-14T16:17:09.004Z,230